Alvin, Illinois
Current Conditions -  °F | °C
As of 4:15 AM on Thursday 27 Nov 2014 (Local Time) from KDNV Reporting Station
Overcast Overcast  
Wind Chill: 15°   Ceiling: 4200
Heat Index: 25°   Visibility: 7mi
Dew Point: 22°   Wind: 9mph
Humidity: 89%   Direction: 300°WNW
Pressure: 30.23"   Gusts: NA
Location:  40.31°N, 87.61°W
Report Text: KDNV 271015Z AUTO 30008KT 7SM OVC042 M04/M06 A3023 RMK AO2 T10411057
Loading
Personal Weather Stations






























Interactive Weather Map New forecast layout! Learn more

10-Day Weather Forecast

Advertisements
Track Severe Weather on mobile